Current Weather

Lamerd

Lamerd, Iran (OISR)

Report from: Sunday, November 27, 2022 8:00 AM UTC
Current time: Sunday, November 27, 2022 8:16 AM UTC

Nearby weather
Weather history
Weather forecast

Temperature29.0°C (84.2°F)
Heat index28.4°C (83.2°F)
Dew point12.0°C (53.6°F)
Winds 6 kts (3.1 m/s, 6.9 mph) West (270°)
Clouds Sky clear
Altimeter30.01 in.Hg (1016 mB)
Relative humidity35 %
Density altitude1,705 ft. (520 m)
Remarks Ceiling and visibility OK
No significant changes expected in the next two hours
Flight conditions Visual Meteorological Conditions
Raw dataOISR 270800Z 27006KT CAVOK 29/12 Q1016 A3001 NOSIG
An error has occurred. This application may no longer respond until reloaded. Reload 🗙